Historyczne dane pomiarowe

Dodano dane terminowe – wersja testowa.

Dane z okresu 1951-2019

Wersja bazy: 1.34 [2019-03-16, lista zmian], aktualizacja planowana na 2019-04-15

Dane meteo z obszaru Polski uzyskane na podstawie danych udostępnionych przez Instytut Meteorologii i Gospodarki Wodnej – Państwowy Instytut Badawczy.

 

Wybierz Datę:    

       

TemperaturaWilgotnośćWiatrCiśnienieOpadyŚniegCzas trwania zjawisk
 Stacja t tx tn tng RH VA  wxwx mslp ppp RRR   cm mm wxwxwxwxwxwxwx
1987-08-14 15.7 21.1 10.5 7.5 68.8- 5.3 4.0---- 0.0------------
1987-08-13 12.3 17.6 4.9 2.5 74.5- 5.3 1.7---- 0.0------------
1987-08-12 13.3 18.1 5.9 5.0 74.0- 7.7 3.3---- 0.0------------
1987-08-11 14.0 19.1 11.9 9.5 78.0- 7.7 5.7---- 0.0------------
1987-08-10 14.6 20.3 12.9 9.0 88.3- 7.7 2.0---- 9.7------------
1987-08-09 14.8 24.3 5.4 3.0 74.5- 3.0 1.7---- 0.0------------
1987-08-08 13.6 19.1 9.3 6.0 77.5- 5.0 2.0---- 0.0------------
1987-08-07 12.5 18.1 6.4 3.0 73.3- 7.3 3.3---- 0.2------------
1987-08-06 11.6 16.0 9.4 6.0 80.5- 6.7 4.3---- 3.8------------
1987-08-05 14.0 17.6 10.4 9.0 78.5- 8.0 1.3---- 0.0------------
1987-08-04 14.2 20.6 9.9 9.5 94.8- 8.0 2.0---- 2.3------------
1987-08-03 15.1 19.3 10.9 8.0 78.3- 5.3 3.7---- 0.0------------
1987-08-02 15.4 19.1 13.9 13.0 80.8- 6.3 2.7---- 0.7------------
1987-08-01 16.5 22.1 11.4 8.0 78.3- 5.7 1.7---- 1.4------------
1987-07-31 16.0 23.6 8.9 7.0 80.8- 8.0 4.7---- 10.3------------
1987-07-30 16.6 24.3 9.9 7.0 77.8- 5.0 2.0---- 0.1------------
1987-07-29 14.1 18.3 10.5 9.0 80.0- 6.0 1.7---- 0.0------------
1987-07-28 13.0 16.5 11.9 10.0 81.0- 7.3 3.7---- 6.3------------
1987-07-27 13.5 18.1 9.4 8.0 85.3- 5.0 3.7---- 0.6------------
1987-07-26 15.3 18.1 11.9 15.0 98.3- 8.0 1.3---- 9.2------------
1987-07-25 17.9 23.5 14.9 12.5 98.0- 8.0 2.0---- 1.7------------
1987-07-24 20.9 28.0 15.3 12.5 93.0- 5.3 1.3---- 7.7------------
1987-07-23 25.3 28.5 14.9 12.0 78.0- 3.0 1.0---- 5.2------------
1987-07-22 20.2 25.5 14.4 11.5 87.5- 5.0 2.7---- 0.0------------
1987-07-21 21.7 27.2 14.4 12.0 80.3- 2.7 1.7---- 0.0------------
1987-07-20 21.7 27.5 16.3 14.0 84.3- 4.3 2.3---- 0.0------------
1987-07-19 24.4 31.5 15.8 14.0 85.5- 4.0 1.7---- 0.0------------
1987-07-18 24.1 29.2 15.6 12.0 66.0- 1.7 3.0---- 0.0------------
1987-07-17 21.6 29.0 12.9 11.0 74.0- 4.3 1.7---- 0.0------------
1987-07-16 18.7 27.0 8.9 7.0 80.8- 5.3 1.0---- 0.0------------
1987-07-15 15.4 22.1 7.9 9.0 82.0- 4.0 1.0---- 0.0------------
1987-07-14 17.6 21.3 12.9 10.5 71.3- 2.0 2.3---- 0.0------------
1987-07-13 19.4 23.6 15.8 13.5 80.8- 6.3 1.3---- 0.0------------
1987-07-12 20.2 26.2 12.9 9.0 76.0- 3.3 5.7---- 2.6------------
1987-07-11 16.1 23.5 7.4 7.5 87.3- 3.0 2.3---- 0.0------------
1987-07-10 15.9 19.3 12.9 11.0 92.5- 3.3 3.0---- 0.0------------
1987-07-09 20.2 27.0 13.9 11.0 79.0- 5.3 2.7---- 19.3------------
1987-07-08 18.7 27.0 7.9 5.0 73.0- 0.0 2.3---- 0.0------------
1987-07-07 16.7 24.1 6.5 4.0 84.5- 0.3 1.0---- 0.0------------
1987-07-06 16.7 21.6 7.9 5.0 85.5- 0.3 2.0---- 0.0------------
1987-07-05 16.2 20.5 13.7 12.0 89.8- 5.3 2.0---- 0.5------------
1987-07-04 19.8 23.3 16.8 15.0 69.8- 6.0 1.7---- 0.0------------
1987-07-03 19.3 22.6 17.2 15.0 81.3- 8.0 1.7---- 0.0------------
1987-07-02 22.0 27.0 17.8 15.0 85.0- 7.7 2.7---- 0.0------------
1987-07-01 23.2 30.0 15.8 13.0 81.0- 0.0 1.3---- 0.0------------
1987-06-30 21.9 29.0 12.9 11.5 79.5- 1.0 2.0---- 0.0------------
1987-06-29 19.9 24.6 15.8 11.0 77.5- 3.7 1.7---- 0.0------------
1987-06-28 19.0 24.1 12.9 14.0 77.5- 7.0 2.0---- 0.0------------
1987-06-27 19.5 25.0 13.2 12.5 65.8- 6.7 1.7---- 0.2------------
1987-06-26 15.2 23.1 7.9 5.0 69.8- 4.7 3.0---- 0.0------------
1987-06-25 15.3 20.1 11.4 10.0 79.5- 6.3 3.7---- 1.2------------
1987-06-24 16.6 21.1 10.9 9.0 73.8- 6.3 1.3---- 0.0------------
1987-06-23 17.0 20.1 12.9 10.0 76.8- 5.3 1.3---- 0.0------------
1987-06-22 16.9 26.0 11.9 12.0 78.5- 7.3 2.0---- 0.0------------
1987-06-21 15.5 23.6 7.9 6.0 75.5- 4.0 1.3---- 0.0------------
1987-06-20 13.5 22.1 5.4 3.0 77.8- 1.3 1.0---- 0.0------------
1987-06-19 11.6 18.1 7.9 5.0 81.3- 6.0 3.0---- 0.0------------
1987-06-18 10.6 18.1 4.8 2.0 81.3- 6.7 2.3---- 8.0------------
1987-06-17 11.8 15.0 9.9 10.0 80.3- 6.3 2.3---- 2.8------------
1987-06-16 16.3 23.6 12.8 12.0 81.8- 7.0 3.7---- 7.8------------
451.3 ms

 

Źródłem pochodzenia danych jest Instytut Meteorologii i Gospodarki Wodnej – Państwowy Instytut Badawczy. Dane Instytutu Meteorologii i Gospodarki Wodnej – Państwowego Instytutu Badawczego zostały przetworzone.

Dane źródłowe można odnaleźć na stronie https://dane.imgw.pl